Portada
METAR-TAF:

METAR-TAF

Aeroports :

Boscobel, Wisconsin, Estats Units d'Amèrica

Boscobel Airport

latitud: 43-09-22N, longitud: 090-40-39W, altitud: 205 m

Observació

L'informe es va fer fa 15 hores i 43 minuts, a les 15:10 UTC
Vent 3 kt del Sud-Oest
Temperatura 2°C
Humitat 100%
Pressió 1010 hPa
Visibilitat: 2.8 km
Cel cobert a una alçada de 700 ft
pluja, boirina

METAR: KOVS 201510Z AUTO 23003KT 1 3/4SM -RA BR OVC007 02/02 A2983 RMK AO2 UPB1457E1459RAB1459 P0001 T00220017

Hora: 00:53 (06:53 UTC)


TAF: manca

Observacions i pronòstics meteorològics de més de 4000 aeroports (METAR i TAF).

Les estacions disponibles són els punts grocs i vermells al mapa.

Posi el ratolí al punt desitjat per veure el nom de l'estació.

Feu clic per veure les observacions i els pronòstics meteorològics.

Per canviar el mapa: feu clic els botons verds amb una creu de color negre per apropar; al botó verd amb un guió per allunyar la imatge; o en les fletxes verdes per a mapes adjacents.


METAR-TAF: